Time;durP1;ratioP1;P1;durP2;ratioP2;P2;SDS_P1;SDS_P2;PMS_P1;PMS_P2;Temp;Humidity;BMP_temperature;BMP_pressure;BME280_temperature;BME280_humidity;BME280_pressure;Samples;Min_cycle;Max_cycle;Signal;HPM_P1;HPM_P2
2022/06/11 00:01:06;;;;;;;3.42;1.73;;;17.70;99.90;;;;;;5107273;28;20051;-83
2022/06/11 00:03:32;;;;;;;4.35;1.77;;;17.70;99.90;;;;;;5090555;28;20539;-84
2022/06/11 00:05:58;;;;;;;8.15;2.20;;;17.60;99.90;;;;;;5107858;28;20043;-83
2022/06/11 00:08:25;;;;;;;3.72;1.50;;;17.60;99.90;;;;;;5089834;28;20426;-83
2022/06/11 00:10:51;;;;;;;4.68;1.45;;;17.80;99.90;;;;;;5108135;28;20119;-83
2022/06/11 00:13:22;;;;;;;3.95;1.50;;;17.50;99.90;;;;;;5089677;28;20043;-83
2022/06/11 00:15:49;;;;;;;8.88;2.17;;;17.40;99.90;;;;;;5075624;28;20050;-84
2022/06/11 00:18:16;;;;;;;5.80;1.73;;;17.30;99.90;;;;;;5090043;28;20039;-84
2022/06/11 00:20:41;;;;;;;7.90;2.45;;;17.20;99.90;;;;;;5090350;28;20047;-83
2022/06/11 00:23:07;;;;;;;4.03;2.38;;;17.20;99.90;;;;;;5090917;28;20393;-84
2022/06/11 00:25:34;;;;;;;4.63;1.90;;;17.10;99.90;;;;;;5106508;28;20048;-84
2022/06/11 00:28:01;;;;;;;5.00;2.03;;;17.10;99.90;;;;;;5075267;28;20039;-84
2022/06/11 00:30:27;;;;;;;7.13;1.95;;;16.90;99.90;;;;;;5090069;28;20037;-84
2022/06/11 00:32:55;;;;;;;8.88;2.33;;;16.90;99.90;;;;;;5091491;28;20061;-83
2022/06/11 00:35:22;;;;;;;4.60;3.00;;;16.80;99.90;;;;;;5106938;28;20091;-84
2022/06/11 00:37:49;;;;;;;5.18;2.25;;;16.80;99.90;;;;;;5090455;28;20044;-83
2022/06/11 00:40:19;;;;;;;7.13;3.13;;;17.30;99.90;;;;;;5090613;28;20134;-84
2022/06/11 00:42:45;;;;;;;4.00;2.42;;;16.70;99.90;;;;;;5089846;28;20047;-84
2022/06/11 00:45:26;;;;;;;4.32;2.10;;;16.70;99.90;;;;;;5107107;28;20178;-84
2022/06/11 00:47:57;;;;;;;8.57;2.78;;;16.70;99.90;;;;;;5106853;28;20087;-84
2022/06/11 00:50:23;;;;;;;5.63;2.70;;;16.60;99.90;;;;;;5099957;28;20043;-83
2022/06/11 00:52:50;;;;;;;6.00;2.95;;;16.50;99.90;;;;;;5092914;28;20040;-84
2022/06/11 00:55:27;;;;;;;7.22;2.72;;;16.50;99.90;;;;;;5090615;28;20126;-84
2022/06/11 00:57:57;;;;;;;8.07;2.78;;;16.50;99.90;;;;;;5090502;28;20051;-84
2022/06/11 01:00:35;;;;;;;7.10;3.10;;;16.40;99.90;;;;;;5106090;28;20075;-84
2022/06/11 01:03:02;;;;;;;8.20;3.60;;;16.40;99.90;;;;;;5090705;28;20039;-83
2022/06/11 01:05:32;;;;;;;7.72;3.47;;;16.30;99.90;;;;;;5072904;28;20137;-84
2022/06/11 01:08:19;;;;;;;6.68;3.65;;;16.30;99.90;;;;;;5089663;28;20141;-84
2022/06/11 01:11:03;;;;;;;7.97;3.33;;;16.20;99.90;;;;;;5089938;28;20162;-84
2022/06/11 01:13:42;;;;;;;7.15;3.28;;;16.20;99.90;;;;;;5088395;28;20355;-84
2022/06/11 01:16:41;;;;;;;7.13;3.50;;;16.10;99.90;;;;;;5106395;28;20047;-84
2022/06/11 01:19:54;;;;;;;7.28;2.65;;;16.10;99.90;;;;;;5107299;28;20462;-84
2022/06/11 01:22:38;;;;;;;11.37;2.73;;;16.00;99.90;;;;;;5105881;28;20047;-84
2022/06/11 01:25:32;;;;;;;7.13;2.45;;;16.00;99.90;;;;;;5106226;28;20100;-84
2022/06/11 01:28:05;;;;;;;7.68;2.78;;;15.90;99.90;;;;;;5106905;28;20047;-84
2022/06/11 01:30:50;;;;;;;;;;;15.90;99.90;;;;;;5105804;28;20035;-84
2022/06/11 01:33:41;;;;;;;7.30;1.85;;;15.90;99.90;;;;;;5089582;28;20466;-84
2022/06/11 01:36:23;;;;;;;7.43;1.75;;;15.80;99.90;;;;;;5106429;28;20065;-84
2022/06/11 01:39:09;;;;;;;5.90;1.70;;;15.80;99.90;;;;;;5088434;28;20055;-84
2022/06/11 01:41:59;;;;;;;5.93;1.45;;;15.80;99.90;;;;;;5089571;28;20083;-84
2022/06/11 01:44:29;;;;;;;6.95;1.88;;;15.70;99.90;;;;;;5089543;28;20608;-85
2022/06/11 01:46:56;;;;;;;7.45;1.58;;;15.60;99.90;;;;;;5106147;28;20043;-84
2022/06/11 01:49:22;;;;;;;5.60;1.30;;;15.70;99.90;;;;;;5073356;28;20590;-85
2022/06/11 01:52:00;;;;;;;5.88;1.45;;;15.60;99.90;;;;;;5105073;28;20130;-84
2022/06/11 01:54:53;;;;;;;5.45;1.50;;;15.60;99.90;;;;;;5089387;28;20084;-84
2022/06/11 01:58:01;;;;;;;6.97;1.23;;;15.60;99.90;;;;;;5091343;28;20054;-84
2022/06/11 02:00:33;;;;;;;6.38;1.35;;;15.60;99.90;;;;;;5095480;28;20051;-84
2022/06/11 02:03:23;;;;;;;5.70;1.33;;;15.60;99.90;;;;;;5110872;28;20039;-84
2022/06/11 02:06:25;;;;;;;8.20;1.80;;;15.50;99.90;;;;;;5110181;28;20136;-84
2022/06/11 02:09:03;;;;;;;7.43;1.60;;;15.40;99.90;;;;;;5109505;28;20055;-84
2022/06/11 02:11:45;;;;;;;7.97;1.08;;;15.40;99.90;;;;;;5093802;28;20093;-84
2022/06/11 02:14:32;;;;;;;9.38;1.40;;;15.30;99.90;;;;;;5110073;28;20047;-84
2022/06/11 02:17:10;;;;;;;7.13;1.48;;;15.30;99.90;;;;;;5109528;28;20155;-84
2022/06/11 02:19:54;;;;;;;3.60;1.40;;;15.20;99.90;;;;;;5093446;28;20078;-84
2022/06/11 02:22:32;;;;;;;6.65;1.42;;;15.20;99.90;;;;;;5109486;28;20054;-84
2022/06/11 02:25:34;;;;;;;7.63;1.42;;;15.20;99.90;;;;;;5092653;28;20036;-84
2022/06/11 02:28:04;;;;;;;7.72;1.65;;;15.10;99.90;;;;;;5057299;28;20051;-84
2022/06/11 02:30:32;;;;;;;5.60;1.95;;;15.10;99.90;;;;;;5093607;28;20028;-84
2022/06/11 02:32:59;;;;;;;4.85;1.30;;;15.10;99.90;;;;;;5061896;28;20036;-84
2022/06/11 02:35:39;;;;;;;7.15;1.20;;;15.80;99.90;;;;;;5109515;28;20074;-84
2022/06/11 02:38:09;;;;;;;8.13;1.50;;;15.00;99.90;;;;;;5092014;28;20051;-85
2022/06/11 02:40:41;;;;;;;7.60;1.50;;;15.00;99.90;;;;;;5110113;28;20130;-84
2022/06/11 02:43:07;;;;;;;8.90;1.20;;;15.00;99.90;;;;;;5109706;28;20047;-84
2022/06/11 02:45:33;;;;;;;10.23;1.60;;;15.00;99.90;;;;;;5117122;28;20071;-83
2022/06/11 02:47:58;;;;;;;8.77;1.80;;;15.00;99.90;;;;;;5094900;28;20044;-84
2022/06/11 02:50:30;;;;;;;9.73;1.42;;;16.00;99.90;;;;;;5092571;28;20128;-84
2022/06/11 02:52:57;;;;;;;9.82;1.30;;;14.90;99.90;;;;;;5109283;28;20043;-84
2022/06/11 02:55:24;;;;;;;8.73;1.60;;;14.90;99.90;;;;;;5108361;28;20075;-84
2022/06/11 02:57:50;;;;;;;6.13;1.63;;;14.90;99.90;;;;;;5092405;28;20047;-84
2022/06/11 03:00:25;;;;;;;7.68;1.45;;;14.80;99.90;;;;;;5074299;28;20051;-84
2022/06/11 03:02:51;;;;;;;8.35;1.45;;;14.80;99.90;;;;;;5109816;28;20185;-84
2022/06/11 03:05:20;;;;;;;5.80;1.58;;;15.90;99.90;;;;;;5108114;28;20048;-84
2022/06/11 03:07:46;;;;;;;6.07;1.25;;;14.80;99.90;;;;;;5108641;28;20070;-84
2022/06/11 03:10:18;;;;;;;6.25;1.30;;;14.90;99.90;;;;;;5091536;28;20065;-84
2022/06/11 03:12:44;;;;;;;11.15;1.75;;;14.80;99.90;;;;;;5107952;28;20051;-84
2022/06/11 03:15:13;;;;;;;6.80;1.60;;;14.80;99.90;;;;;;5109312;28;20043;-84
2022/06/11 03:17:39;;;;;;;8.45;1.67;;;14.80;99.90;;;;;;5090992;28;20040;-84
2022/06/11 03:20:06;;;;;;;6.30;1.70;;;14.70;99.90;;;;;;5108846;28;20044;-84
2022/06/11 03:22:32;;;;;;;5.45;1.77;;;14.70;99.90;;;;;;5090966;28;20047;-84
2022/06/11 03:24:58;;;;;;;11.27;1.35;;;14.70;99.90;;;;;;5108528;28;20051;-84
2022/06/11 03:27:24;;;;;;;4.88;1.05;;;14.60;99.90;;;;;;5108643;28;20377;-84
2022/06/11 03:29:51;;;;;;;8.75;1.88;;;14.60;99.90;;;;;;5107388;28;20040;-84
2022/06/11 03:32:17;;;;;;;6.35;1.55;;;14.60;99.90;;;;;;5092359;28;20048;-84
2022/06/11 03:34:43;;;;;;;5.72;1.38;;;14.50;99.90;;;;;;5107448;28;20044;-84
2022/06/11 03:37:09;;;;;;;8.02;1.90;;;14.80;99.90;;;;;;5109160;28;20073;-84
2022/06/11 03:39:35;;;;;;;8.13;1.40;;;14.90;99.90;;;;;;5107271;28;20168;-84
2022/06/11 03:42:01;;;;;;;5.95;1.50;;;14.80;99.90;;;;;;5109820;28;20035;-84
2022/06/11 03:44:26;;;;;;;4.97;2.10;;;14.50;99.90;;;;;;5108187;28;20457;-84
2022/06/11 03:46:52;;;;;;;7.30;1.98;;;15.70;99.90;;;;;;5107300;28;20048;-84
2022/06/11 03:49:19;;;;;;;6.03;1.52;;;14.50;99.90;;;;;;5109186;28;20046;-84
2022/06/11 03:51:46;;;;;;;7.63;1.98;;;14.50;99.90;;;;;;5106220;28;20051;-84
2022/06/11 03:54:13;;;;;;;14.05;2.28;;;14.50;99.90;;;;;;5110205;28;20042;-84
2022/06/11 03:56:39;;;;;;;9.18;2.55;;;14.50;99.90;;;;;;5090375;28;20046;-83
2022/06/11 03:59:07;;;;;;;10.10;1.73;;;14.50;99.90;;;;;;5109544;28;20404;-84
2022/06/11 04:01:33;;;;;;;10.15;2.03;;;14.50;99.90;;;;;;5092558;28;20514;-84
2022/06/11 04:04:02;;;;;;;10.90;1.88;;;14.50;99.90;;;;;;5090580;28;20031;-84
2022/06/11 04:06:35;;;;;;;6.55;1.90;;;14.60;99.90;;;;;;5108273;28;20040;-84
2022/06/11 04:09:02;;;;;;;;;;;14.60;99.90;;;;;;5107542;28;20051;-84
2022/06/11 04:11:28;;;;;;;14.00;2.28;;;14.70;99.90;;;;;;5091347;28;20273;-84
2022/06/11 04:13:54;;;;;;;8.43;2.00;;;15.80;99.90;;;;;;5108754;28;20097;-85
2022/06/11 04:16:27;;;;;;;11.32;3.17;;;14.70;99.90;;;;;;5107498;28;20044;-84
2022/06/11 04:18:55;;;;;;;12.07;2.35;;;14.70;99.90;;;;;;5091273;28;20521;-85
2022/06/11 04:21:21;;;;;;;5.55;1.73;;;14.80;99.90;;;;;;5107272;28;20036;-85
2022/06/11 04:23:50;;;;;;;7.22;1.73;;;14.70;99.90;;;;;;5108047;28;20047;-85
2022/06/11 04:26:22;;;;;;;10.82;2.80;;;14.80;99.90;;;;;;5107999;28;20044;-86
2022/06/11 04:28:48;;;;;;;11.00;1.77;;;15.00;99.90;;;;;;5109213;28;20067;-83
2022/06/11 04:31:15;;;;;;;7.68;2.00;;;14.90;99.90;;;;;;5110027;28;20035;-83
2022/06/11 04:33:43;;;;;;;11.65;2.40;;;14.90;99.90;;;;;;5110247;28;20047;-83
2022/06/11 04:36:09;;;;;;;6.20;1.65;;;15.00;99.90;;;;;;5111198;28;20158;-84
2022/06/11 04:38:36;;;;;;;6.85;2.20;;;15.80;99.90;;;;;;5095381;28;20247;-82
2022/06/11 04:41:01;;;;;;;8.95;1.88;;;15.00;99.90;;;;;;5079268;28;20472;-84
2022/06/11 04:43:27;;;;;;;9.82;2.05;;;15.10;99.90;;;;;;5108751;28;20059;-84
2022/06/11 04:45:53;;;;;;;11.82;1.85;;;15.10;99.90;;;;;;5076440;28;20044;-79
2022/06/11 04:48:18;;;;;;;10.30;2.45;;;15.20;99.90;;;;;;5108476;28;20074;-79
2022/06/11 04:50:44;;;;;;;7.57;1.98;;;15.20;99.90;;;;;;5108561;28;20081;-80
2022/06/11 04:53:10;;;;;;;11.63;2.40;;;15.30;99.90;;;;;;5109312;28;20051;-81
2022/06/11 04:55:35;;;;;;;7.70;2.75;;;15.40;99.90;;;;;;5073517;28;20043;-80
2022/06/11 04:58:02;;;;;;;9.38;2.20;;;15.40;99.90;;;;;;5091076;28;20086;-80
2022/06/11 05:00:30;;;;;;;7.32;2.05;;;15.40;99.90;;;;;;5090140;28;20050;-80
2022/06/11 05:02:56;;;;;;;13.80;2.15;;;15.50;99.90;;;;;;5091445;28;20043;-82
2022/06/11 05:05:23;;;;;;;11.23;2.17;;;15.60;99.90;;;;;;5108076;28;20058;-82
2022/06/11 05:07:49;;;;;;;11.00;2.17;;;15.60;99.90;;;;;;5108267;28;20127;-81
2022/06/11 05:10:18;;;;;;;17.55;3.35;;;15.70;99.90;;;;;;5091937;28;20424;-80
2022/06/11 05:12:43;;;;;;;11.55;2.13;;;15.70;99.90;;;;;;5107285;28;20043;-81
2022/06/11 05:15:10;;;;;;;12.35;2.42;;;15.70;99.90;;;;;;5091694;28;20043;-81
2022/06/11 05:17:36;;;;;;;16.42;2.13;;;15.80;99.90;;;;;;5089929;28;20450;-81
2022/06/11 05:20:03;;;;;;;9.20;1.73;;;15.80;99.90;;;;;;5090784;28;20043;-81
2022/06/11 05:22:29;;;;;;;9.68;2.20;;;15.90;99.90;;;;;;5072812;28;20103;-81
2022/06/11 05:24:54;;;;;;;10.50;2.22;;;15.90;99.90;;;;;;5073317;28;20157;-81
2022/06/11 05:27:23;;;;;;;13.18;2.53;;;16.00;99.90;;;;;;5090457;28;20351;-81
2022/06/11 05:29:57;;;;;;;17.58;2.58;;;16.10;99.90;;;;;;5109969;28;20048;-82
2022/06/11 05:32:29;;;;;;;20.50;2.95;;;16.20;99.90;;;;;;5109190;28;20043;-80
2022/06/11 05:34:57;;;;;;;14.38;2.78;;;16.20;99.90;;;;;;5106701;28;20519;-81
2022/06/11 05:37:27;;;;;;;10.93;2.53;;;16.30;99.90;;;;;;5090574;28;20040;-83
2022/06/11 05:39:53;;;;;;;10.80;2.78;;;16.30;99.90;;;;;;5106393;28;20048;-81
2022/06/11 05:42:22;;;;;;;12.82;3.10;;;16.30;99.90;;;;;;5088882;28;20040;-81
2022/06/11 05:44:48;;;;;;;15.65;3.05;;;16.30;99.90;;;;;;5090087;28;20123;-80
2022/06/11 05:47:17;;;;;;;12.93;2.95;;;16.40;99.90;;;;;;5088698;28;20565;-78
2022/06/11 05:49:45;;;;;;;17.52;3.25;;;16.40;99.90;;;;;;5107066;28;20097;-81
2022/06/11 05:52:18;;;;;;;15.43;2.38;;;16.70;99.90;;;;;;5089008;28;20075;-80
2022/06/11 05:54:46;;;;;;;15.63;2.60;;;16.60;99.90;;;;;;5089140;28;20180;-80
2022/06/11 05:57:15;;;;;;;19.20;3.22;;;16.60;99.90;;;;;;5089863;28;20067;-80
2022/06/11 05:59:55;;;;;;;18.67;4.07;;;16.70;99.90;;;;;;5105394;28;20081;-81
2022/06/11 06:02:23;;;;;;;14.05;2.97;;;16.70;99.90;;;;;;5106722;28;20059;-81
2022/06/11 06:04:50;;;;;;;13.07;3.28;;;16.80;99.90;;;;;;5105489;28;20051;-80
2022/06/11 06:07:15;;;;;;;16.10;3.42;;;16.80;99.90;;;;;;5089541;28;20481;-79
2022/06/11 06:09:41;;;;;;;15.20;3.60;;;16.90;99.90;;;;;;5106330;28;20046;-80
2022/06/11 06:12:08;;;;;;;22.83;3.58;;;16.90;99.90;;;;;;5106394;28;20083;-81
2022/06/11 06:14:34;;;;;;;16.08;3.17;;;17.00;99.90;;;;;;5106991;28;20044;-81
2022/06/11 06:17:00;;;;;;;20.75;3.45;;;17.10;99.90;;;;;;5106644;28;20118;-81
2022/06/11 06:19:25;;;;;;;13.10;3.05;;;17.10;99.90;;;;;;5111201;28;20059;-81
2022/06/11 06:21:51;;;;;;;13.82;3.42;;;17.40;99.90;;;;;;5077278;28;20050;-80
2022/06/11 06:24:17;;;;;;;19.50;3.75;;;17.20;99.90;;;;;;5096510;28;20044;-81
2022/06/11 06:26:43;;;;;;;18.15;3.92;;;17.30;99.90;;;;;;5115162;28;20054;-82
2022/06/11 06:29:09;;;;;;;20.20;2.83;;;17.40;99.90;;;;;;5083607;28;20032;-84
2022/06/11 06:31:35;;;;;;;17.98;3.65;;;17.40;99.90;;;;;;5103975;28;20044;-81
2022/06/11 06:34:01;;;;;;;12.23;3.40;;;17.50;99.90;;;;;;5120533;28;20310;-80
2022/06/11 06:36:28;;;;;;;19.50;3.25;;;17.60;99.90;;;;;;5102808;28;20104;-82
2022/06/11 06:38:55;;;;;;;12.30;2.63;;;17.60;99.90;;;;;;5090842;28;20059;-82
2022/06/11 06:41:21;;;;;;;16.05;3.40;;;17.60;99.90;;;;;;5107759;28;20520;-82
2022/06/11 06:43:48;;;;;;;12.98;3.45;;;17.70;99.90;;;;;;5106451;28;20587;-83
2022/06/11 06:46:15;;;;;;;12.13;2.83;;;17.80;99.90;;;;;;5109766;28;20055;-82
2022/06/11 06:48:43;;;;;;;14.07;2.83;;;17.90;99.90;;;;;;5093137;28;20371;-83
2022/06/11 06:51:10;;;;;;;17.20;3.10;;;18.00;99.90;;;;;;5092064;28;20334;-82
2022/06/11 06:53:40;;;;;;;19.17;3.92;;;18.00;99.90;;;;;;5110450;28;20400;-83
2022/06/11 06:56:07;;;;;;;18.45;4.38;;;18.10;99.90;;;;;;5091730;28;20035;-84
2022/06/11 06:58:33;;;;;;;18.45;3.35;;;18.20;99.90;;;;;;5110437;28;20371;-83
2022/06/11 07:01:00;;;;;;;20.02;3.30;;;18.30;99.90;;;;;;5075453;28;20049;-82
2022/06/11 07:03:26;;;;;;;22.25;3.10;;;18.40;99.90;;;;;;5074782;28;20051;-82
2022/06/11 07:05:52;;;;;;;20.02;3.25;;;18.40;99.90;;;;;;5109555;28;20040;-82
2022/06/11 07:08:18;;;;;;;20.67;3.35;;;18.60;99.90;;;;;;5108660;28;20122;-83
2022/06/11 07:10:49;;;;;;;12.85;2.90;;;18.70;99.90;;;;;;5092166;28;20046;-82
2022/06/11 07:13:16;;;;;;;20.38;4.05;;;18.70;99.90;;;;;;5108296;28;20521;-81
2022/06/11 07:15:47;;;;;;;18.83;3.58;;;18.70;99.90;;;;;;5092913;28;20082;-80
2022/06/11 07:18:29;;;;;;;13.30;3.08;;;18.80;99.90;;;;;;5111759;28;20032;-80
2022/06/11 07:20:58;;;;;;;21.80;3.75;;;18.90;99.90;;;;;;5112307;28;20043;-81
2022/06/11 07:23:35;;;;;;;14.57;3.75;;;18.90;99.90;;;;;;5113761;28;20040;-80
2022/06/11 07:26:04;;;;;;;21.35;3.60;;;19.00;99.90;;;;;;5097203;28;20067;-80
2022/06/11 07:28:57;;;;;;;14.77;3.25;;;19.10;99.90;;;;;;5097796;28;20168;-79
2022/06/11 07:31:23;;;;;;;15.38;2.80;;;19.30;99.90;;;;;;5113703;28;20046;-80
2022/06/11 07:33:50;;;;;;;17.65;3.85;;;19.40;99.90;;;;;;5114018;28;20127;-83
2022/06/11 07:36:17;;;;;;;16.75;3.00;;;19.50;99.90;;;;;;5114950;28;20588;-81
2022/06/11 07:38:44;;;;;;;17.15;3.50;;;19.50;99.90;;;;;;5113381;28;20075;-84
2022/06/11 07:41:10;;;;;;;20.58;3.60;;;20.00;99.90;;;;;;5098803;28;20044;-81
2022/06/11 07:43:36;;;;;;;16.92;3.50;;;19.70;99.90;;;;;;5113854;28;20255;-83
2022/06/11 07:46:03;;;;;;;16.02;3.33;;;19.80;99.90;;;;;;5113680;28;20075;-83
2022/06/11 07:48:29;;;;;;;16.58;3.58;;;19.80;99.90;;;;;;5113393;28;20130;-84
2022/06/11 07:50:54;;;;;;;18.25;3.60;;;20.70;99.90;;;;;;5096264;28;20044;-81
2022/06/11 07:53:22;;;;;;;19.05;3.42;;;20.00;99.90;;;;;;5113334;28;20258;-83
2022/06/11 07:55:51;;;;;;;14.05;3.20;;;20.00;99.90;;;;;;5092382;28;20513;-83
2022/06/11 07:58:18;;;;;;;20.20;3.60;;;20.00;99.90;;;;;;5093083;28;20039;-80
2022/06/11 08:00:50;;;;;;;17.75;3.33;;;20.10;99.90;;;;;;5074869;28;20055;-81
2022/06/11 08:03:18;;;;;;;13.90;3.17;;;20.20;99.90;;;;;;5111223;28;20043;-82
2022/06/11 08:05:44;;;;;;;15.57;3.25;;;20.20;99.90;;;;;;5110063;28;20052;-83
2022/06/11 08:08:11;;;;;;;12.88;3.35;;;20.30;99.90;;;;;;5109845;28;20452;-80
2022/06/11 08:10:40;;;;;;;17.08;3.20;;;20.30;99.90;;;;;;5110961;28;20058;-80
2022/06/11 08:13:07;;;;;;;15.18;3.50;;;20.40;99.90;;;;;;5109863;28;20408;-81
2022/06/11 08:15:33;;;;;;;13.13;2.88;;;20.40;99.90;;;;;;5093659;28;20628;-83
2022/06/11 08:17:59;;;;;;;17.70;3.20;;;20.40;99.90;;;;;;5093021;28;20500;-83
2022/06/11 08:20:28;;;;;;;16.38;4.32;;;20.50;99.90;;;;;;5109408;28;20048;-81
2022/06/11 08:22:54;;;;;;;12.48;2.63;;;20.60;99.90;;;;;;5092154;28;20438;-78
2022/06/11 08:25:25;;;;;;;11.75;3.03;;;20.70;99.90;;;;;;5091046;28;20411;-82
2022/06/11 08:27:52;;;;;;;14.10;3.17;;;20.80;99.90;;;;;;5079399;28;20420;-80
2022/06/11 08:30:20;;;;;;;15.60;2.90;;;20.90;99.90;;;;;;5112434;28;20052;-82
2022/06/11 08:32:47;;;;;;;14.95;2.90;;;20.80;99.90;;;;;;5112155;28;20039;-79
2022/06/11 08:35:14;;;;;;;10.30;2.63;;;20.90;99.90;;;;;;5110206;28;20496;-80
2022/06/11 08:37:40;;;;;;;14.23;2.40;;;20.90;99.90;;;;;;5111292;28;20088;-82
2022/06/11 08:40:12;;;;;;;16.00;3.30;;;21.00;99.90;;;;;;5111156;28;20130;-81
2022/06/11 08:42:41;;;;;;;17.33;3.42;;;21.00;99.90;;;;;;5110871;28;20044;-79
2022/06/11 08:45:20;;;;;;;13.55;2.45;;;21.10;99.90;;;;;;5109411;28;20073;-81
2022/06/11 08:48:01;;;;;;;11.63;2.47;;;21.20;99.90;;;;;;5111608;28;20115;-82
2022/06/11 08:50:32;;;;;;;12.82;2.85;;;22.30;99.90;;;;;;5111171;28;20521;-84
2022/06/11 08:52:59;;;;;;;9.63;2.38;;;21.50;99.90;;;;;;5112887;28;20400;-83
2022/06/11 08:55:33;;;;;;;13.07;2.90;;;21.60;99.90;;;;;;5112311;28;20053;-85
2022/06/11 08:58:08;;;;;;;15.43;2.75;;;21.60;99.90;;;;;;5111960;28;20040;-81
2022/06/11 09:00:44;;;;;;;14.52;2.92;;;21.60;99.90;;;;;;5109658;28;20092;-81
2022/06/11 09:03:35;;;;;;;11.15;2.30;;;21.70;99.90;;;;;;5112444;28;20070;-83
2022/06/11 09:06:53;;;;;;;10.65;2.42;;;21.90;99.90;;;;;;5108796;28;20251;-80
2022/06/11 09:09:18;;;;;;;12.55;2.70;;;22.00;99.90;;;;;;5093590;28;20389;-84
2022/06/11 09:12:16;;;;;;;15.07;2.65;;;22.10;99.90;;;;;;5110417;28;20074;-83
2022/06/11 09:14:52;;;;;;;16.88;3.08;;;22.20;99.90;;;;;;5110609;28;20126;-83
2022/06/11 09:17:20;;;;;;;12.70;2.53;;;22.30;99.90;;;;;;5090786;28;20035;-85
2022/06/11 09:20:20;;;;;;;11.20;2.15;;;22.40;99.90;;;;;;5089998;28;20079;-83
2022/06/11 09:23:11;;;;;;;9.55;2.38;;;22.40;99.90;;;;;;5089295;28;20052;-84
2022/06/11 09:26:09;;;;;;;8.70;1.98;;;22.30;99.10;;;;;;5105591;28;20048;-84
2022/06/11 09:28:44;;;;;;;8.65;2.00;;;22.20;98.80;;;;;;5065132;28;20431;-84
2022/06/11 09:31:56;;;;;;;10.25;2.30;;;22.10;99.40;;;;;;5106177;28;20070;-83
2022/06/11 09:34:43;;;;;;;12.02;2.45;;;22.10;99.90;;;;;;5105236;28;20050;-84
2022/06/11 09:37:20;;;;;;;7.65;1.98;;;22.20;99.90;;;;;;5106793;28;20064;-83
2022/06/11 09:40:04;;;;;;;10.13;2.33;;;22.10;98.80;;;;;;5105425;28;20051;-81
2022/06/11 09:42:29;;;;;;;;;;;22.20;98.20;;;;;;5106425;28;20163;-80
2022/06/11 09:45:01;;;;;;;11.35;2.45;;;23.00;96.90;;;;;;5105926;28;20392;-79
2022/06/11 09:47:45;;;;;;;7.57;2.10;;;22.30;99.90;;;;;;5104723;28;20055;-79
2022/06/11 09:50:26;;;;;;;7.47;1.73;;;22.30;99.70;;;;;;5106193;28;20487;-79
2022/06/11 09:53:13;;;;;;;8.63;1.67;;;22.20;97.30;;;;;;5088397;28;20039;-79
2022/06/11 09:55:42;;;;;;;9.80;2.30;;;22.30;98.90;;;;;;5088611;28;20039;-80
2022/06/11 09:58:23;;;;;;;11.25;2.13;;;22.30;98.10;;;;;;5089591;28;20103;-80
2022/06/11 10:00:57;;;;;;;12.70;2.10;;;22.40;97.30;;;;;;5088552;28;20050;-81
2022/06/11 10:03:35;;;;;;;8.68;2.30;;;22.50;98.20;;;;;;5106120;28;20044;-81
2022/06/11 10:06:35;;;;;;;10.73;2.15;;;22.60;96.20;;;;;;5089081;28;20547;-80
2022/06/11 10:09:12;;;;;;;10.55;2.47;;;22.50;93.80;;;;;;5088137;28;20055;-81
2022/06/11 10:11:38;;;;;;;11.40;2.42;;;22.60;94.90;;;;;;5106507;28;20440;-81
2022/06/11 10:14:29;;;;;;;9.07;2.33;;;22.60;96.80;;;;;;5105704;28;20083;-80
2022/06/11 10:17:12;;;;;;;9.05;1.88;;;22.70;94.60;;;;;;5105161;28;20048;-80
2022/06/11 10:19:55;;;;;;;9.70;2.00;;;22.90;95.20;;;;;;5110044;28;20047;-80
2022/06/11 10:22:35;;;;;;;8.55;1.65;;;22.80;93.50;;;;;;5109365;28;20040;-81
2022/06/11 10:25:07;;;;;;;8.05;1.90;;;22.80;93.20;;;;;;5111632;28;20043;-80
2022/06/11 10:27:39;;;;;;;9.18;1.95;;;22.80;95.10;;;;;;5092894;28;20047;-80
2022/06/11 10:30:35;;;;;;;10.32;2.20;;;22.80;93.60;;;;;;5110070;28;20052;-81
2022/06/11 10:33:06;;;;;;;10.23;2.17;;;22.80;92.30;;;;;;5096179;28;20192;-81
2022/06/11 10:35:43;;;;;;;8.27;1.70;;;23.00;92.30;;;;;;5109247;28;20408;-81
2022/06/11 10:38:25;;;;;;;7.72;1.65;;;23.00;88.00;;;;;;5109069;28;20051;-81
2022/06/11 10:40:54;;;;;;;9.82;1.83;;;23.10;91.30;;;;;;5109582;28;20506;-82
2022/06/11 10:43:32;;;;;;;11.75;2.40;;;23.20;87.20;;;;;;5108836;28;20492;-81
2022/06/11 10:46:00;;;;;;;11.77;2.30;;;23.30;88.30;;;;;;5109402;28;20128;-81
2022/06/11 10:48:32;;;;;;;7.50;1.75;;;23.40;88.40;;;;;;5092227;28;20125;-81
2022/06/11 10:50:59;;;;;;;9.35;1.50;;;23.50;76.20;;;;;;5108892;28;20700;-81
2022/06/11 10:53:33;;;;;;;7.43;1.63;;;23.50;86.50;;;;;;5109790;28;20048;-81
2022/06/11 10:56:06;;;;;;;9.38;1.65;;;23.50;86.50;;;;;;5108567;28;20484;-81
2022/06/11 10:58:45;;;;;;;6.53;1.52;;;23.60;84.40;;;;;;5092126;28;20040;-81
2022/06/11 11:01:20;;;;;;;7.80;1.88;;;23.70;78.40;;;;;;5108687;28;20090;-82
2022/06/11 11:04:10;;;;;;;9.98;2.15;;;23.70;81.20;;;;;;5091939;28;20116;-81
2022/06/11 11:06:36;;;;;;;8.68;1.75;;;23.50;74.80;;;;;;5092598;28;20055;-81
2022/06/11 11:09:10;;;;;;;10.93;1.60;;;23.50;78.70;;;;;;5091157;28;20039;-81
2022/06/11 11:11:46;;;;;;;8.55;2.30;;;23.60;73.90;;;;;;5091954;28;20488;-81
2022/06/11 11:14:28;;;;;;;6.50;1.55;;;23.60;72.10;;;;;;5108869;28;20055;-82
2022/06/11 11:16:59;;;;;;;8.43;1.90;;;23.70;63.60;;;;;;5108319;28;20467;-81
2022/06/11 11:19:28;;;;;;;8.60;1.63;;;23.80;69.70;;;;;;5108767;28;20059;-81
2022/06/11 11:21:57;;;;;;;8.00;1.58;;;23.80;67.00;;;;;;5107882;28;20039;-81
2022/06/11 11:24:29;;;;;;;8.45;2.20;;;23.70;66.50;;;;;;5091858;28;20039;-81
2022/06/11 11:26:58;;;;;;;;;;;23.70;65.90;;;;;;5091438;28;20138;-81
2022/06/11 11:29:28;;;;;;;12.13;2.30;;;23.70;60.70;;;;;;5107341;28;20410;-81
2022/06/11 11:32:37;;;;;;;8.90;1.60;;;23.70;68.10;;;;;;5109155;28;20093;-81
2022/06/11 11:35:17;;;;;;;9.68;2.22;;;23.80;65.00;;;;;;5107334;28;20051;-82
2022/06/11 11:37:45;;;;;;;11.95;2.13;;;23.80;61.70;;;;;;5108268;28;20188;-81
2022/06/11 11:40:23;;;;;;;6.68;1.40;;;23.80;65.90;;;;;;5108366;28;20046;-81
2022/06/11 11:42:54;;;;;;;9.98;1.88;;;23.80;62.90;;;;;;5107677;28;20031;-81
2022/06/11 11:45:29;;;;;;;7.20;1.77;;;23.80;65.00;;;;;;5091321;28;20050;-81
2022/06/11 11:48:03;;;;;;;9.57;1.90;;;23.90;64.80;;;;;;5107568;28;20130;-81
2022/06/11 11:50:41;;;;;;;10.40;1.52;;;24.10;61.70;;;;;;5108223;28;20048;-81
2022/06/11 11:53:28;;;;;;;8.73;1.80;;;24.20;61.80;;;;;;5091179;28;20051;-81
2022/06/11 11:56:04;;;;;;;7.50;1.98;;;24.30;61.10;;;;;;5107507;28;20043;-81
2022/06/11 11:58:40;;;;;;;9.25;1.90;;;24.40;63.80;;;;;;5108027;28;20059;-82
2022/06/11 12:01:14;;;;;;;4.40;1.23;;;24.70;59.60;;;;;;5107954;28;20468;-81
2022/06/11 12:03:43;;;;;;;7.70;1.73;;;24.70;61.30;;;;;;5090153;28;20044;-81
2022/06/11 12:06:13;;;;;;;8.88;1.80;;;24.60;60.80;;;;;;5107664;28;20039;-81
2022/06/11 12:08:50;;;;;;;6.93;2.05;;;24.50;60.40;;;;;;5106866;28;20088;-81
2022/06/11 12:11:27;;;;;;;8.73;1.75;;;24.30;59.00;;;;;;5107646;28;20048;-81
2022/06/11 12:14:17;;;;;;;9.63;2.65;;;24.20;59.60;;;;;;5090489;28;20434;-81
2022/06/11 12:16:50;;;;;;;11.45;2.13;;;24.40;60.00;;;;;;5107078;28;20124;-81
2022/06/11 12:19:19;;;;;;;5.65;1.80;;;24.60;60.90;;;;;;5107770;28;20482;-82
2022/06/11 12:21:54;;;;;;;12.63;1.70;;;24.80;59.00;;;;;;5090254;28;20040;-81
2022/06/11 12:24:39;;;;;;;6.30;1.52;;;24.70;59.70;;;;;;5090681;28;20067;-81
2022/06/11 12:27:13;;;;;;;4.57;1.27;;;24.70;59.60;;;;;;5107125;28;20048;-81
2022/06/11 12:29:47;;;;;;;8.80;1.70;;;24.60;58.50;;;;;;5089982;28;20108;-81
2022/06/11 12:32:17;;;;;;;5.50;1.15;;;24.70;58.00;;;;;;5107421;28;20118;-81
2022/06/11 12:34:44;;;;;;;4.50;1.30;;;24.70;57.40;;;;;;5106342;28;20130;-80
2022/06/11 12:37:58;;;;;;;4.78;1.25;;;24.80;58.50;;;;;;5107663;28;20051;-81
2022/06/11 12:40:38;;;;;;;5.20;1.38;;;24.40;57.50;;;;;;5085519;28;20054;-81
2022/06/11 12:43:37;;;;;;;5.57;1.60;;;24.50;56.60;;;;;;5106020;28;20154;-81
2022/06/11 12:46:36;;;;;;;6.40;1.15;;;24.40;56.80;;;;;;5090270;28;20040;-81
2022/06/11 12:49:53;;;;;;;6.75;1.30;;;24.50;56.20;;;;;;5065951;28;20500;-81
2022/06/11 12:52:31;;;;;;;3.75;1.10;;;24.60;54.50;;;;;;5106644;28;20048;-81
2022/06/11 12:55:41;;;;;;;3.25;0.98;;;24.50;55.70;;;;;;5089869;28;20515;-81
2022/06/11 12:58:21;;;;;;;4.65;1.13;;;24.30;55.30;;;;;;5018516;28;20065;-80
2022/06/11 13:00:55;;;;;;;5.13;0.93;;;24.10;56.70;;;;;;5106333;28;20048;-81
2022/06/11 13:03:42;;;;;;;5.85;0.95;;;24.10;58.20;;;;;;5089782;28;20047;-81
2022/06/11 13:06:34;;;;;;;5.15;0.90;;;24.20;57.20;;;;;;5106906;28;20116;-81
2022/06/11 13:09:27;;;;;;;6.82;2.13;;;24.40;57.00;;;;;;5088928;28;20078;-81
2022/06/11 13:12:25;;;;;;;7.07;1.40;;;24.50;56.40;;;;;;5106920;28;20055;-81
2022/06/11 13:15:16;;;;;;;7.75;1.27;;;24.50;56.40;;;;;;5106699;28;20270;-81